Weather reports worldwide

Advertisment
Sa Pobla, Spain (8312): temperature & dewpoint: 09.09.2019 10:00:00 - 15.09.2019 10:00:00 (CEST)Sa Pobla, Spain (8312): wind speed & gusts: 09.09.2019 10:00:00 - 15.09.2019 10:00:00 (CEST)Sa Pobla, Spain (8312): wind direction: 09.09.2019 10:00:00 - 15.09.2019 10:00:00 (CEST)Sa Pobla, Spain (8312): reduced air pressure: 09.09.2019 10:00:00 - 15.09.2019 10:00:00 (CEST)Sa Pobla, Spain (8312): sunshine duration: 09.09.2019 10:00:00 - 15.09.2019 10:00:00 (CEST)Sa Pobla, Spain (8312): precipitation: 09.09.2019 10:00:00 - 15.09.2019 10:00:00 (CEST)
Date & Time tt [°C] td [°C] ff [km/h] ff [kn] fx [km/h] fx [kn] dd ppp [hPa] sd [min] rr [mm]
15.09.2019 10:00:00 - - - - - - - - - -
15.09.2019 09:00:00 23,7 22,9 6 3 13 7 NW 1021,3 3 0,0
15.09.2019 08:00:00 23,3 22,4 8 4 20 11 N 1021,5 0 -
15.09.2019 07:00:00 23,3 22,3 9 5 17 9 NNE 1021,5 0 0,0
15.09.2019 06:00:00 23,4 22,4 11 6 18 10 N 1021,4 0 0,0
15.09.2019 05:00:00 23,4 22,4 13 7 22 12 N 1020,9 0 0,0
15.09.2019 04:00:00 23,5 22,5 13 7 21 11 N 1021,1 0 0,0
15.09.2019 03:00:00 23,2 22,2 9 5 14 7 NNW 1022,1 0 0,0
15.09.2019 02:00:00 23,3 22,3 8 5 13 7 N 1022,2 0 -
15.09.2019 01:00:00 23,1 21,7 6 4 15 8 N 1022,4 0 0,0
15.09.2019 00:00:00 23,3 21,8 8 4 15 8 N 1023,7 0 0,0
14.09.2019 23:00:00 23,5 21,6 9 5 20 11 N 1023,8 0 0,0
14.09.2019 22:00:00 23,7 21,6 13 7 27 15 NNE 1023,2 0 0,0
14.09.2019 21:00:00 23,8 19,5 8 5 20 11 NE 1022,2 0 0,0
14.09.2019 20:00:00 24,5 20,4 9 5 26 14 NE 1022,7 0 -
14.09.2019 19:00:00 25,2 20,9 16 8 35 19 NE 1022,2 12 0,0
14.09.2019 18:00:00 26,1 21,8 19 10 34 18 NE 1021,7 60 0,0
14.09.2019 17:00:00 27,2 21,5 19 11 33 18 NE 1021,9 60 0,0
14.09.2019 16:00:00 28,5 18,0 10 5 28 15 E 1022,6 46 0,0
14.09.2019 15:00:00 27,4 19,7 13 7 22 12 NE 1023,3 26 0,0
14.09.2019 14:00:00 27,9 19,1 14 7 26 14 NNE 1023,8 60 -
14.09.2019 13:00:00 27,3 19,3 14 8 25 13 NNE 1024,2 60 0,0
14.09.2019 12:00:00 26,3 18,5 16 8 - - NE 1024,6 60 0,0
14.09.2019 11:00:00 25,7 18,8 11 6 23 13 ENE 1024,3 49 0,0
14.09.2019 10:00:00 22,1 18,7 9 5 21 12 N 1023,9 3 0,0
14.09.2019 09:00:00 21,4 19,5 5 3 12 6 NW 1024,4 0 0,0
14.09.2019 08:00:00 20,8 18,8 6 3 15 8 NNW 1023,6 0 -
14.09.2019 07:00:00 20,7 18,2 6 3 16 9 N 1023,3 0 0,0
14.09.2019 06:00:00 21,8 18,8 12 7 23 13 N 1022,7 0 0,0
14.09.2019 05:00:00 21,4 17,4 11 6 29 16 NNE 1023,3 0 0,0
14.09.2019 04:00:00 21,8 17,8 22 12 42 23 NNE 1023,8 0 0,2
14.09.2019 03:00:00 21,4 18,6 20 11 31 17 NNE 1024,0 0 0,0
14.09.2019 02:00:00 21,4 18,6 18 10 29 15 NNE 1025,7 0 -
14.09.2019 01:00:00 21,0 18,8 12 7 22 12 N 1025,7 0 0,8
14.09.2019 00:00:00 21,8 18,2 6 3 23 12 NW 1026,7 0 3,2
13.09.2019 23:00:00 22,8 19,6 11 6 20 11 N 1025,0 0 0,0
13.09.2019 22:00:00 22,7 21,0 9 5 16 9 N 1024,8 0 0,0
13.09.2019 21:00:00 23,5 21,4 11 6 21 12 N 1024,8 0 0,0
13.09.2019 20:00:00 23,6 21,7 15 8 27 15 N 1024,5 0 -
13.09.2019 19:00:00 24,0 22,6 19 11 31 17 NNE 1024,1 0 0,0
13.09.2019 18:00:00 24,3 22,2 19 10 31 17 NE 1024,0 2 0,0
13.09.2019 17:00:00 24,1 22,0 16 9 32 17 NNE 1024,8 1 0,4
13.09.2019 16:00:00 24,6 21,3 19 11 40 21 NE 1025,2 30 0,2
13.09.2019 15:00:00 23,7 21,4 23 12 39 21 N 1026,0 15 0,2
13.09.2019 14:00:00 23,8 22,3 23 12 33 18 NNE 1026,7 5 -
13.09.2019 13:00:00 22,2 19,6 14 8 21 11 NNE 1026,7 0 0,2
13.09.2019 12:00:00 21,1 19,8 9 5 17 9 N 1027,6 0 1,0
13.09.2019 11:00:00 22,0 20,5 8 5 27 15 NNE 1028,9 0 1,4
13.09.2019 10:00:00 22,9 20,8 - - - - - 1028,7 2 0,0
13.09.2019 09:00:00 22,9 20,8 21 11 30 16 NNE 1024,8 5 0,0
13.09.2019 08:00:00 22,2 20,3 16 8 25 13 NE 1024,7 0 -
13.09.2019 07:00:00 22,0 20,7 8 5 30 16 N 1023,6 0 0,0
13.09.2019 06:00:00 22,0 21,0 13 7 35 19 N 1024,1 0 1,8
13.09.2019 05:00:00 22,4 21,1 14 8 22 12 NNE 1026,1 0 0,0
13.09.2019 04:00:00 22,4 20,9 9 5 17 9 N 1026,7 0 0,0
13.09.2019 03:00:00 22,2 20,9 9 5 15 8 NNE 1026,8 0 0,0
13.09.2019 02:00:00 22,3 20,4 4 2 19 10 NE 1027,5 0 -
13.09.2019 01:00:00 22,4 19,6 11 6 18 10 N 1026,7 0 0,0
13.09.2019 00:00:00 21,9 17,7 9 5 21 11 N 1026,5 0 0,0
12.09.2019 23:00:00 21,8 17,4 10 5 17 9 N 1026,8 0 0,0
12.09.2019 22:00:00 21,9 17,9 9 5 18 10 N 1026,8 0 0,0
12.09.2019 21:00:00 22,2 17,5 11 6 21 12 N 1026,1 0 0,0
12.09.2019 20:00:00 22,8 17,5 14 7 26 14 NNE 1026,3 26 -
12.09.2019 19:00:00 23,9 17,1 16 9 37 20 NE 1026,5 60 0,0
12.09.2019 18:00:00 24,5 16,7 24 13 42 23 NE 1026,0 60 0,0
12.09.2019 17:00:00 25,4 14,8 23 12 50 27 NE 1025,7 60 0,0
12.09.2019 16:00:00 25,4 14,5 29 16 49 27 NE 1026,2 60 0,0
12.09.2019 15:00:00 25,8 15,2 27 15 48 26 NE 1026,3 60 0,0
12.09.2019 14:00:00 25,8 15,5 26 14 51 27 NE 1027,0 60 -
12.09.2019 13:00:00 25,7 15,7 29 15 45 25 NE 1027,5 60 0,0
12.09.2019 12:00:00 26,2 15,3 22 12 44 24 NE 1027,3 60 0,0
12.09.2019 11:00:00 25,3 15,3 26 14 45 25 NNE 1026,7 59 0,0
12.09.2019 10:00:00 23,4 15,7 28 15 39 21 NNE 1026,1 0 0,0
12.09.2019 09:00:00 22,4 16,0 27 15 41 22 NNE 1025,8 0 0,0
12.09.2019 08:00:00 22,9 16,9 22 12 44 24 NE 1026,1 0 -
12.09.2019 07:00:00 22,6 17,5 24 13 39 21 NE 1024,5 0 0,0
12.09.2019 06:00:00 22,7 17,0 22 12 40 21 NE 1024,3 0 0,0
12.09.2019 05:00:00 22,7 17,1 24 13 43 23 NE 1023,6 0 0,0
12.09.2019 04:00:00 22,9 16,6 22 12 41 22 NE 1023,8 0 0,0
12.09.2019 03:00:00 22,6 16,8 23 12 50 27 NE 1023,8 0 0,0
12.09.2019 02:00:00 23,0 18,8 22 12 46 25 NE 1023,4 0 -
12.09.2019 01:00:00 23,1 18,6 28 15 50 27 NE 1022,5 0 0,0
12.09.2019 00:00:00 22,8 19,2 27 14 56 30 NE 1022,3 0 0,0
11.09.2019 23:00:00 22,8 19,0 33 18 56 30 NNE 1021,8 0 0,0
11.09.2019 22:00:00 23,0 19,0 29 16 44 24 NNE 1021,4 0 0,0
11.09.2019 21:00:00 22,7 18,5 18 10 32 17 NNE 1021,3 0 0,0
11.09.2019 20:00:00 22,9 17,1 19 10 39 21 NNE 1020,9 0 -
11.09.2019 19:00:00 23,5 16,3 25 13 40 22 NE 1020,6 6 0,0
11.09.2019 18:00:00 24,0 16,8 23 12 35 19 NE 1020,5 14 0,0
11.09.2019 17:00:00 24,3 15,8 16 9 35 19 NE 1020,2 39 0,0
11.09.2019 16:00:00 25,4 14,5 18 10 36 19 NE 1019,8 60 0,0
11.09.2019 15:00:00 25,4 14,5 15 8 40 21 NE 1019,5 60 0,0
11.09.2019 14:00:00 24,9 15,3 17 9 32 17 NE 1019,4 55 -
11.09.2019 13:00:00 23,5 15,5 21 12 30 16 NNE 1018,6 52 0,0
11.09.2019 12:00:00 23,9 14,9 10 5 21 11 ENE 1018,1 60 0,0
11.09.2019 11:00:00 22,5 16,0 9 5 17 9 NE 1017,3 60 0,0
11.09.2019 10:00:00 19,3 15,0 5 3 9 5 NNE 1016,5 60 0,0
11.09.2019 09:00:00 16,4 15,3 2 1 10 6 NE 1014,8 60 0,0
11.09.2019 08:00:00 13,9 13,2 6 3 14 7 W 1013,7 13 -
11.09.2019 07:00:00 13,8 12,5 3 1 9 5 ENE 1012,7 0 0,0
11.09.2019 06:00:00 14,9 13,0 3 2 19 11 W 1011,1 0 0,0
11.09.2019 05:00:00 15,8 13,1 10 5 21 11 SSW 1010,7 0 0,0
11.09.2019 04:00:00 15,7 12,4 10 5 23 13 SSW 1010,3 0 0,0
11.09.2019 03:00:00 16,0 13,3 5 3 14 7 SSW 1010,0 0 0,0
11.09.2019 02:00:00 16,1 13,3 8 5 18 10 S 1009,6 0 -
11.09.2019 01:00:00 17,8 13,4 4 2 23 13 W 1009,3 0 0,0
11.09.2019 00:00:00 17,5 14,0 3 2 31 17 N 1009,8 0 0,0
10.09.2019 23:00:00 17,9 13,4 16 8 51 28 NNW 1009,5 0 0,0
10.09.2019 22:00:00 17,5 12,6 21 11 54 29 NNW 1009,1 0 0,0
10.09.2019 21:00:00 16,6 13,6 22 12 46 25 N 1009,4 0 0,6
10.09.2019 20:00:00 15,3 13,5 34 19 60 32 NNW 1008,3 0 -
10.09.2019 19:00:00 16,5 16,0 16 9 39 21 NW 1009,9 0 13,8
10.09.2019 18:00:00 18,1 17,6 15 8 41 22 NNW 1008,7 0 10,6
10.09.2019 17:00:00 18,9 15,8 16 9 49 26 NW 1008,0 0 0,0
10.09.2019 16:00:00 21,9 16,6 30 16 49 27 NE 1007,4 6 0,0
10.09.2019 15:00:00 21,7 16,9 28 15 41 22 NNE 1008,3 11 0,0
10.09.2019 14:00:00 22,3 17,2 27 15 43 23 NNE 1008,5 13 -
10.09.2019 13:00:00 23,8 18,5 29 15 - - NNE 1008,3 52 0,2
10.09.2019 12:00:00 25,5 17,5 3 2 10 5 NNE 1008,0 51 0,0
10.09.2019 11:00:00 - - - - - - - - - -
10.09.2019 10:00:00 - - - - - - - - - -
10.09.2019 09:00:00 - - - - - - - - - -
10.09.2019 08:00:00 - - - - - - - - - -
10.09.2019 07:00:00 - - - - - - - - - -
10.09.2019 06:00:00 - - - - - - - - - -
10.09.2019 05:00:00 - - - - - - - - - -
10.09.2019 04:00:00 - - - - - - - - - -
10.09.2019 03:00:00 - - - - - - - - - -
10.09.2019 02:00:00 - - - - - - - - - -
10.09.2019 01:00:00 - - - - - - - - - -
10.09.2019 00:00:00 - - - - - - - - - -
09.09.2019 23:00:00 - - - - - - - - - -
09.09.2019 22:00:00 - - - - - - - - - -
09.09.2019 21:00:00 - - - - - - - - - -
09.09.2019 20:00:00 - - - - - - - - - -
09.09.2019 19:00:00 - - - - - - - - - -
09.09.2019 18:00:00 - - - - - - - - - -
09.09.2019 17:00:00 - - - - - - - - - -
09.09.2019 16:00:00 - - - - - - - - - -
09.09.2019 15:00:00 - - - - - - - - - -
09.09.2019 14:00:00 - - - - - - - - - -
09.09.2019 13:00:00 - - - - - - - - - -
09.09.2019 12:00:00 - - - - - - - - - -
09.09.2019 11:00:00 - - - - - - - - - -
09.09.2019 10:00:00 - - - - - - - - - -

tt = temperature
td = dewpoint
ff = wind speed
fx = gusts
dd = wind direction
ppp = reduced air pressure
sd = sunshine duration
rr = precipitation

Next stations